Time;durP1;ratioP1;P1;durP2;ratioP2;P2;SDS_P1;SDS_P2;PMS_P1;PMS_P2;Temp;Humidity;BMP_temperature;BMP_pressure;BME280_temperature;BME280_humidity;BME280_pressure;Samples;Min_cycle;Max_cycle;Signal;HPM_P1;HPM_P2
2022/12/16 00:00:14;;;;;;;50.88;28.15;;;;;;;-4.60;81.21;100432.98;3336692;83;21032;-74
2022/12/16 00:05:07;;;;;;;52.83;27.07;;;;;;;-4.60;81.39;100414.85;3368913;82;20984;-74
2022/12/16 00:09:58;;;;;;;56.65;27.75;;;;;;;-4.63;81.20;100415.89;3366255;83;21025;-74
2022/12/16 00:14:49;;;;;;;50.60;27.20;;;;;;;-4.67;81.17;100412.64;3385882;81;21023;-74
2022/12/16 00:19:41;;;;;;;52.23;28.40;;;;;;;-4.68;81.25;100418.47;3400990;82;21676;-74
2022/12/16 00:24:32;;;;;;;55.20;28.73;;;;;;;-4.69;81.24;100404.41;3396508;82;21005;-74
2022/12/16 00:29:23;;;;;;;54.18;27.13;;;;;;;-4.69;81.32;100406.95;3359761;81;21005;-74
2022/12/16 00:34:16;;;;;;;55.33;27.77;;;;;;;-4.68;81.29;100418.47;3338497;81;21665;-73
2022/12/16 00:39:07;;;;;;;49.10;26.50;;;;;;;-4.72;81.09;100406.34;3348387;82;21044;-73
2022/12/16 00:43:58;;;;;;;59.05;29.82;;;;;;;-4.72;81.37;100403.81;3385039;81;22211;-74
2022/12/16 00:49:24;;;;;;;54.23;29.20;;;;;;;-4.69;81.33;100407.81;3379675;82;21028;-74
2022/12/16 00:54:26;;;;;;;53.83;29.10;;;;;;;-4.67;81.32;100403.77;3369297;82;20992;-74
2022/12/16 00:59:25;;;;;;;55.28;28.23;;;;;;;-4.65;81.30;100414.91;3342664;82;20994;-73
2022/12/16 01:04:23;;;;;;;54.73;26.97;;;;;;;-4.69;81.20;100411.62;3362426;81;20997;-74
2022/12/16 01:09:26;;;;;;;51.15;25.60;;;;;;;-4.67;81.37;100405.03;3386349;82;21491;-74
2022/12/16 01:14:20;;;;;;;54.63;26.62;;;;;;;-4.64;81.46;100399.28;3390347;80;20999;-74
2022/12/16 01:19:14;;;;;;;46.15;24.57;;;;;;;-4.64;81.35;100403.96;3338417;82;21037;-73
2022/12/16 01:24:11;;;;;;;52.40;26.45;;;;;;;-4.63;81.36;100384.17;3396642;80;21051;-74
2022/12/16 01:29:10;;;;;;;59.15;27.62;;;;;;;-4.63;81.32;100389.25;3399752;80;21008;-73
2022/12/16 01:34:07;;;;;;;;;;;;;;;-4.63;81.34;100401.94;3360801;82;22546;-74
2022/12/16 01:39:04;;;;;;;52.10;26.57;;;;;;;-4.63;81.30;100404.47;3400576;80;20150;-74
2022/12/16 01:44:25;;;;;;;49.20;24.95;;;;;;;-4.65;81.31;100395.88;3388103;82;21065;-74
2022/12/16 01:49:39;;;;;;;53.85;25.82;;;;;;;-4.67;81.19;100384.73;3430317;81;21028;-73
2022/12/16 01:54:47;;;;;;;50.70;25.43;;;;;;;-4.67;81.37;100379.66;3394477;80;20998;-74
2022/12/16 01:59:48;;;;;;;62.10;28.50;;;;;;;-4.70;81.21;100373.09;3391967;81;21488;-74
2022/12/16 02:10:03;;;;;;;52.62;25.20;;;;;;;-4.74;81.32;100369.81;3402375;82;22300;-74
2022/12/16 02:15:16;;;;;;;54.18;28.92;;;;;;;-4.74;81.25;100356.26;3371645;81;20988;-74
2022/12/16 02:20:48;;;;;;;55.92;29.10;;;;;;;-4.76;81.15;100352.34;3382558;82;21050;-74
2022/12/16 02:26:14;;;;;;;58.60;28.87;;;;;;;-4.78;81.13;100339.94;3415535;81;21962;-74
2022/12/16 02:31:23;;;;;;;52.40;25.80;;;;;;;-4.79;81.18;100330.58;3427712;81;22025;-74
2022/12/16 02:36:41;;;;;;;50.85;26.02;;;;;;;-4.77;81.30;100356.94;3425300;81;21091;-74
2022/12/16 02:41:50;;;;;;;52.80;25.68;;;;;;;-4.74;81.29;100346.98;3424648;81;21044;-74
2022/12/16 02:46:52;;;;;;;58.68;28.70;;;;;;;-4.73;81.21;100336.08;3418654;79;20992;-74
2022/12/16 02:51:44;;;;;;;51.50;25.68;;;;;;;-4.71;81.25;100333.26;3387281;82;22028;-73
2022/12/16 02:57:02;;;;;;;54.90;27.22;;;;;;;-4.71;81.14;100326.92;3373266;82;20956;-73
2022/12/16 03:02:11;;;;;;;50.30;26.48;;;;;;;-4.71;81.13;100309.16;3402673;82;20988;-75
2022/12/16 03:07:06;;;;;;;52.90;26.20;;;;;;;-4.72;81.12;100309.05;3397430;82;21000;-74
2022/12/16 03:12:02;;;;;;;53.87;25.92;;;;;;;-4.75;81.09;100286.89;3400250;82;21394;-74
2022/12/16 03:16:55;;;;;;;51.60;26.15;;;;;;;-4.76;81.14;100293.12;3425404;81;21507;-74
2022/12/16 03:21:58;;;;;;;51.35;23.73;;;;;;;-4.78;81.08;100287.94;3352474;82;21482;-74
2022/12/16 03:27:18;;;;;;;44.83;24.85;;;;;;;-4.77;81.14;100292.25;3398961;81;20985;-74
2022/12/16 03:32:32;;;;;;;54.42;24.80;;;;;;;-4.79;80.98;100290.88;3414178;80;21035;-74
2022/12/16 03:37:28;;;;;;;54.00;25.45;;;;;;;-4.79;81.15;100297.21;3427423;80;20937;-74
2022/12/16 03:42:23;;;;;;;49.63;25.12;;;;;;;-4.77;81.06;100298.59;3424829;81;27516;-74
2022/12/16 03:47:14;;;;;;;50.38;25.95;;;;;;;-4.78;80.97;100281.59;3331303;82;21035;-74
2022/12/16 03:52:05;;;;;;;52.17;26.93;;;;;;;-4.79;81.04;100270.58;3394353;82;20980;-74
2022/12/16 03:56:57;;;;;;;57.00;28.32;;;;;;;-4.79;81.09;100265.91;3351218;81;21015;-74
2022/12/16 04:01:49;;;;;;;49.25;26.40;;;;;;;-4.81;80.97;100267.42;3405663;82;20902;-74
2022/12/16 04:06:40;;;;;;;59.27;30.23;;;;;;;-4.82;81.03;100265.28;3373889;81;21098;-74
2022/12/16 04:32:12;;;;;;;53.87;27.65;;;;;;;-4.79;80.99;100230.39;3383998;81;21575;-74
